sensor_id;sensor_type;location;lat;lon;timestamp;P1;durP1;ratioP1;P2;durP2;ratioP2
50815;SDS011;39717;47.324;8.788;2022-09-09T00:04:58;4.30;;;2.10;;
50815;SDS011;39717;47.324;8.788;2022-09-09T00:07:38;3.70;;;2.40;;
50815;SDS011;39717;47.324;8.788;2022-09-09T00:10:19;5.33;;;2.13;;
50815;SDS011;39717;47.324;8.788;2022-09-09T00:12:55;5.73;;;2.23;;
50815;SDS011;39717;47.324;8.788;2022-09-09T00:18:37;3.20;;;2.10;;
50815;SDS011;39717;47.324;8.788;2022-09-09T00:21:16;3.77;;;2.00;;
50815;SDS011;39717;47.324;8.788;2022-09-09T00:23:55;3.77;;;2.27;;
50815;SDS011;39717;47.324;8.788;2022-09-09T00:32:16;6.30;;;2.40;;
50815;SDS011;39717;47.324;8.788;2022-09-09T00:37:35;3.40;;;2.37;;
50815;SDS011;39717;47.324;8.788;2022-09-09T00:40:04;4.30;;;2.87;;
50815;SDS011;39717;47.324;8.788;2022-09-09T00:42:50;4.53;;;2.33;;
50815;SDS011;39717;47.324;8.788;2022-09-09T00:48:19;5.73;;;2.57;;
50815;SDS011;39717;47.324;8.788;2022-09-09T00:58:49;5.37;;;2.10;;
50815;SDS011;39717;47.324;8.788;2022-09-09T01:01:30;4.50;;;2.07;;
50815;SDS011;39717;47.324;8.788;2022-09-09T01:03:56;4.63;;;2.20;;
50815;SDS011;39717;47.324;8.788;2022-09-09T01:06:35;2.80;;;2.10;;
50815;SDS011;39717;47.324;8.788;2022-09-09T01:19:59;2.93;;;2.10;;
50815;SDS011;39717;47.324;8.788;2022-09-09T01:28:42;3.70;;;2.00;;
50815;SDS011;39717;47.324;8.788;2022-09-09T01:31:13;7.10;;;2.33;;
50815;SDS011;39717;47.324;8.788;2022-09-09T01:33:55;3.37;;;2.30;;
50815;SDS011;39717;47.324;8.788;2022-09-09T01:36:32;3.60;;;2.13;;
50815;SDS011;39717;47.324;8.788;2022-09-09T01:39:04;5.87;;;2.57;;
50815;SDS011;39717;47.324;8.788;2022-09-09T01:41:30;2.53;;;2.20;;
50815;SDS011;39717;47.324;8.788;2022-09-09T01:43:56;4.17;;;2.67;;
50815;SDS011;39717;47.324;8.788;2022-09-09T01:46:22;3.47;;;2.33;;
50815;SDS011;39717;47.324;8.788;2022-09-09T01:48:52;7.53;;;2.07;;
50815;SDS011;39717;47.324;8.788;2022-09-09T01:51:19;2.90;;;2.20;;
50815;SDS011;39717;47.324;8.788;2022-09-09T01:53:46;7.37;;;2.50;;
50815;SDS011;39717;47.324;8.788;2022-09-09T01:59:15;4.40;;;2.20;;
50815;SDS011;39717;47.324;8.788;2022-09-09T02:04:36;4.63;;;2.63;;
50815;SDS011;39717;47.324;8.788;2022-09-09T02:09:47;3.33;;;2.33;;
50815;SDS011;39717;47.324;8.788;2022-09-09T02:12:18;4.80;;;2.60;;
50815;SDS011;39717;47.324;8.788;2022-09-09T02:14:52;2.33;;;2.03;;
50815;SDS011;39717;47.324;8.788;2022-09-09T02:17:27;3.40;;;2.10;;
50815;SDS011;39717;47.324;8.788;2022-09-09T02:20:03;5.00;;;2.13;;
50815;SDS011;39717;47.324;8.788;2022-09-09T02:22:35;3.60;;;2.07;;
50815;SDS011;39717;47.324;8.788;2022-09-09T02:25:05;2.00;;;1.80;;
50815;SDS011;39717;47.324;8.788;2022-09-09T02:27:34;4.10;;;2.17;;
50815;SDS011;39717;47.324;8.788;2022-09-09T02:30:00;4.03;;;2.13;;
50815;SDS011;39717;47.324;8.788;2022-09-09T02:32:29;4.23;;;2.13;;
50815;SDS011;39717;47.324;8.788;2022-09-09T02:34:59;4.50;;;2.10;;
50815;SDS011;39717;47.324;8.788;2022-09-09T02:37:34;4.40;;;2.20;;
50815;SDS011;39717;47.324;8.788;2022-09-09T02:40:06;3.80;;;2.00;;
50815;SDS011;39717;47.324;8.788;2022-09-09T02:42:39;3.47;;;2.20;;
50815;SDS011;39717;47.324;8.788;2022-09-09T02:45:07;3.50;;;1.93;;
50815;SDS011;39717;47.324;8.788;2022-09-09T02:47:35;2.80;;;2.20;;
50815;SDS011;39717;47.324;8.788;2022-09-09T02:50:09;3.63;;;2.33;;
50815;SDS011;39717;47.324;8.788;2022-09-09T02:55:35;4.03;;;2.53;;
50815;SDS011;39717;47.324;8.788;2022-09-09T02:58:08;5.13;;;1.90;;
50815;SDS011;39717;47.324;8.788;2022-09-09T03:00:38;3.70;;;2.10;;
50815;SDS011;39717;47.324;8.788;2022-09-09T03:03:06;2.50;;;2.10;;
50815;SDS011;39717;47.324;8.788;2022-09-09T03:05:34;4.27;;;2.07;;
50815;SDS011;39717;47.324;8.788;2022-09-09T03:08:00;3.57;;;2.40;;
50815;SDS011;39717;47.324;8.788;2022-09-09T03:10:27;2.53;;;2.17;;
50815;SDS011;39717;47.324;8.788;2022-09-09T03:12:53;2.60;;;2.20;;
50815;SDS011;39717;47.324;8.788;2022-09-09T03:15:20;4.30;;;2.77;;
50815;SDS011;39717;47.324;8.788;2022-09-09T03:17:46;2.13;;;2.00;;
50815;SDS011;39717;47.324;8.788;2022-09-09T03:20:12;3.17;;;2.07;;
50815;SDS011;39717;47.324;8.788;2022-09-09T03:22:38;2.20;;;2.00;;
50815;SDS011;39717;47.324;8.788;2022-09-09T03:25:04;4.07;;;2.20;;
50815;SDS011;39717;47.324;8.788;2022-09-09T03:27:31;2.50;;;2.30;;
50815;SDS011;39717;47.324;8.788;2022-09-09T03:29:58;2.97;;;1.90;;
50815;SDS011;39717;47.324;8.788;2022-09-09T03:32:23;2.80;;;1.97;;
50815;SDS011;39717;47.324;8.788;2022-09-09T03:34:51;4.27;;;2.60;;
50815;SDS011;39717;47.324;8.788;2022-09-09T03:37:18;4.53;;;1.87;;
50815;SDS011;39717;47.324;8.788;2022-09-09T03:39:45;3.30;;;2.17;;
50815;SDS011;39717;47.324;8.788;2022-09-09T03:42:14;3.50;;;2.17;;
50815;SDS011;39717;47.324;8.788;2022-09-09T03:44:44;3.00;;;2.03;;
50815;SDS011;39717;47.324;8.788;2022-09-09T03:47:15;5.00;;;2.13;;
50815;SDS011;39717;47.324;8.788;2022-09-09T03:49:46;5.83;;;2.27;;
50815;SDS011;39717;47.324;8.788;2022-09-09T03:52:13;3.63;;;2.20;;
50815;SDS011;39717;47.324;8.788;2022-09-09T03:54:40;6.80;;;2.40;;
50815;SDS011;39717;47.324;8.788;2022-09-09T03:57:08;3.53;;;1.93;;
50815;SDS011;39717;47.324;8.788;2022-09-09T03:59:35;2.53;;;2.00;;
50815;SDS011;39717;47.324;8.788;2022-09-09T04:02:01;2.60;;;1.90;;
50815;SDS011;39717;47.324;8.788;2022-09-09T04:04:28;3.27;;;2.17;;
50815;SDS011;39717;47.324;8.788;2022-09-09T04:06:53;6.93;;;2.13;;
50815;SDS011;39717;47.324;8.788;2022-09-09T04:09:19;3.27;;;2.20;;
50815;SDS011;39717;47.324;8.788;2022-09-09T04:11:45;2.67;;;1.80;;
50815;SDS011;39717;47.324;8.788;2022-09-09T04:14:11;3.67;;;2.17;;
50815;SDS011;39717;47.324;8.788;2022-09-09T04:16:37;2.77;;;1.70;;
50815;SDS011;39717;47.324;8.788;2022-09-09T04:19:04;2.63;;;2.10;;
50815;SDS011;39717;47.324;8.788;2022-09-09T04:21:32;2.90;;;2.30;;
50815;SDS011;39717;47.324;8.788;2022-09-09T04:23:58;2.93;;;2.00;;
50815;SDS011;39717;47.324;8.788;2022-09-09T04:26:25;4.60;;;2.00;;
50815;SDS011;39717;47.324;8.788;2022-09-09T04:28:50;4.87;;;2.53;;
50815;SDS011;39717;47.324;8.788;2022-09-09T04:31:17;3.17;;;2.40;;
50815;SDS011;39717;47.324;8.788;2022-09-09T04:33:51;3.03;;;2.70;;
50815;SDS011;39717;47.324;8.788;2022-09-09T04:36:17;2.50;;;2.30;;
50815;SDS011;39717;47.324;8.788;2022-09-09T04:38:45;4.13;;;2.50;;
50815;SDS011;39717;47.324;8.788;2022-09-09T04:41:11;2.17;;;1.80;;
50815;SDS011;39717;47.324;8.788;2022-09-09T04:43:38;4.20;;;2.50;;
50815;SDS011;39717;47.324;8.788;2022-09-09T04:46:05;4.77;;;2.00;;
50815;SDS011;39717;47.324;8.788;2022-09-09T04:48:31;2.33;;;2.00;;
50815;SDS011;39717;47.324;8.788;2022-09-09T04:51:01;4.23;;;2.30;;
50815;SDS011;39717;47.324;8.788;2022-09-09T04:53:30;4.03;;;1.90;;
50815;SDS011;39717;47.324;8.788;2022-09-09T04:56:12;4.60;;;2.40;;
50815;SDS011;39717;47.324;8.788;2022-09-09T04:58:40;4.60;;;2.50;;
50815;SDS011;39717;47.324;8.788;2022-09-09T05:01:09;5.20;;;2.57;;
50815;SDS011;39717;47.324;8.788;2022-09-09T05:03:37;6.70;;;2.57;;
50815;SDS011;39717;47.324;8.788;2022-09-09T05:06:06;4.03;;;3.07;;
50815;SDS011;39717;47.324;8.788;2022-09-09T05:08:35;4.00;;;2.70;;
50815;SDS011;39717;47.324;8.788;2022-09-09T05:11:02;4.00;;;2.60;;
50815;SDS011;39717;47.324;8.788;2022-09-09T05:13:29;5.50;;;2.50;;
50815;SDS011;39717;47.324;8.788;2022-09-09T05:15:57;2.43;;;1.60;;
50815;SDS011;39717;47.324;8.788;2022-09-09T05:18:23;2.70;;;2.50;;
50815;SDS011;39717;47.324;8.788;2022-09-09T05:20:49;4.23;;;2.30;;
50815;SDS011;39717;47.324;8.788;2022-09-09T05:23:16;5.60;;;2.43;;
50815;SDS011;39717;47.324;8.788;2022-09-09T05:25:42;4.90;;;2.47;;
50815;SDS011;39717;47.324;8.788;2022-09-09T05:28:08;2.33;;;1.70;;
50815;SDS011;39717;47.324;8.788;2022-09-09T05:30:35;4.37;;;2.30;;
50815;SDS011;39717;47.324;8.788;2022-09-09T05:33:00;2.83;;;2.10;;
50815;SDS011;39717;47.324;8.788;2022-09-09T05:35:26;3.60;;;2.10;;
50815;SDS011;39717;47.324;8.788;2022-09-09T05:37:52;2.73;;;2.50;;
50815;SDS011;39717;47.324;8.788;2022-09-09T05:40:18;3.50;;;2.43;;
50815;SDS011;39717;47.324;8.788;2022-09-09T05:42:43;5.13;;;2.17;;
50815;SDS011;39717;47.324;8.788;2022-09-09T05:45:09;1.87;;;1.77;;
50815;SDS011;39717;47.324;8.788;2022-09-09T05:47:35;4.60;;;2.30;;
50815;SDS011;39717;47.324;8.788;2022-09-09T05:50:02;3.17;;;2.43;;
50815;SDS011;39717;47.324;8.788;2022-09-09T05:52:29;2.60;;;2.37;;
50815;SDS011;39717;47.324;8.788;2022-09-09T05:54:55;4.10;;;1.77;;
50815;SDS011;39717;47.324;8.788;2022-09-09T05:57:22;6.97;;;2.20;;
50815;SDS011;39717;47.324;8.788;2022-09-09T05:59:48;4.27;;;2.80;;
50815;SDS011;39717;47.324;8.788;2022-09-09T06:02:15;4.87;;;2.80;;
50815;SDS011;39717;47.324;8.788;2022-09-09T06:04:41;4.67;;;2.90;;
50815;SDS011;39717;47.324;8.788;2022-09-09T06:07:07;3.20;;;1.80;;
50815;SDS011;39717;47.324;8.788;2022-09-09T06:09:33;1.93;;;1.77;;
50815;SDS011;39717;47.324;8.788;2022-09-09T06:11:58;2.97;;;2.00;;
50815;SDS011;39717;47.324;8.788;2022-09-09T06:14:24;2.90;;;1.90;;
50815;SDS011;39717;47.324;8.788;2022-09-09T06:16:52;3.67;;;2.23;;
50815;SDS011;39717;47.324;8.788;2022-09-09T06:19:18;2.80;;;2.20;;
50815;SDS011;39717;47.324;8.788;2022-09-09T06:21:45;2.83;;;2.63;;
50815;SDS011;39717;47.324;8.788;2022-09-09T06:24:12;5.83;;;2.67;;
50815;SDS011;39717;47.324;8.788;2022-09-09T06:26:42;5.70;;;2.50;;
50815;SDS011;39717;47.324;8.788;2022-09-09T06:29:08;3.40;;;2.67;;
50815;SDS011;39717;47.324;8.788;2022-09-09T06:31:35;3.17;;;2.70;;
50815;SDS011;39717;47.324;8.788;2022-09-09T06:34:03;2.80;;;2.20;;
50815;SDS011;39717;47.324;8.788;2022-09-09T06:36:32;3.63;;;2.30;;
50815;SDS011;39717;47.324;8.788;2022-09-09T06:39:00;4.27;;;2.63;;
50815;SDS011;39717;47.324;8.788;2022-09-09T06:41:27;4.07;;;2.93;;
50815;SDS011;39717;47.324;8.788;2022-09-09T06:43:54;3.07;;;2.20;;
50815;SDS011;39717;47.324;8.788;2022-09-09T06:46:23;4.70;;;2.50;;
50815;SDS011;39717;47.324;8.788;2022-09-09T06:48:55;3.90;;;2.80;;
50815;SDS011;39717;47.324;8.788;2022-09-09T06:51:24;2.40;;;2.13;;
50815;SDS011;39717;47.324;8.788;2022-09-09T06:53:53;6.13;;;2.80;;
50815;SDS011;39717;47.324;8.788;2022-09-09T06:58:55;4.23;;;2.23;;
50815;SDS011;39717;47.324;8.788;2022-09-09T07:01:30;3.53;;;2.20;;
50815;SDS011;39717;47.324;8.788;2022-09-09T07:03:58;4.63;;;2.50;;
50815;SDS011;39717;47.324;8.788;2022-09-09T07:06:26;3.17;;;2.70;;
50815;SDS011;39717;47.324;8.788;2022-09-09T07:08:54;3.60;;;2.70;;
50815;SDS011;39717;47.324;8.788;2022-09-09T07:11:23;3.57;;;2.77;;
50815;SDS011;39717;47.324;8.788;2022-09-09T07:13:54;3.50;;;2.60;;
50815;SDS011;39717;47.324;8.788;2022-09-09T07:16:22;5.37;;;2.70;;
50815;SDS011;39717;47.324;8.788;2022-09-09T07:18:52;3.03;;;2.00;;
50815;SDS011;39717;47.324;8.788;2022-09-09T07:21:22;3.97;;;2.27;;
50815;SDS011;39717;47.324;8.788;2022-09-09T07:23:50;3.67;;;2.43;;
50815;SDS011;39717;47.324;8.788;2022-09-09T07:26:17;3.70;;;2.40;;
50815;SDS011;39717;47.324;8.788;2022-09-09T07:28:45;3.23;;;1.90;;
50815;SDS011;39717;47.324;8.788;2022-09-09T07:33:42;1.97;;;1.77;;
50815;SDS011;39717;47.324;8.788;2022-09-09T07:36:12;2.07;;;1.70;;
50815;SDS011;39717;47.324;8.788;2022-09-09T07:38:50;3.47;;;1.97;;
50815;SDS011;39717;47.324;8.788;2022-09-09T07:41:22;1.73;;;1.53;;
50815;SDS011;39717;47.324;8.788;2022-09-09T07:44:04;3.57;;;1.80;;
50815;SDS011;39717;47.324;8.788;2022-09-09T07:46:41;2.00;;;1.40;;
50815;SDS011;39717;47.324;8.788;2022-09-09T07:49:08;1.90;;;1.30;;
50815;SDS011;39717;47.324;8.788;2022-09-09T07:51:36;1.93;;;1.73;;
50815;SDS011;39717;47.324;8.788;2022-09-09T07:54:08;2.00;;;1.47;;
50815;SDS011;39717;47.324;8.788;2022-09-09T07:56:36;1.83;;;1.40;;
50815;SDS011;39717;47.324;8.788;2022-09-09T07:59:03;3.53;;;1.70;;
50815;SDS011;39717;47.324;8.788;2022-09-09T08:01:38;2.57;;;1.57;;
50815;SDS011;39717;47.324;8.788;2022-09-09T08:04:08;3.93;;;1.60;;
50815;SDS011;39717;47.324;8.788;2022-09-09T08:06:48;2.37;;;1.40;;
50815;SDS011;39717;47.324;8.788;2022-09-09T08:09:18;2.50;;;1.30;;
50815;SDS011;39717;47.324;8.788;2022-09-09T08:11:44;2.13;;;1.30;;
50815;SDS011;39717;47.324;8.788;2022-09-09T08:14:11;2.67;;;1.60;;
50815;SDS011;39717;47.324;8.788;2022-09-09T08:16:42;1.30;;;1.20;;
50815;SDS011;39717;47.324;8.788;2022-09-09T08:19:09;1.63;;;1.50;;
50815;SDS011;39717;47.324;8.788;2022-09-09T08:21:36;1.53;;;1.23;;
50815;SDS011;39717;47.324;8.788;2022-09-09T08:24:05;2.67;;;1.60;;
50815;SDS011;39717;47.324;8.788;2022-09-09T08:26:33;2.60;;;1.87;;
50815;SDS011;39717;47.324;8.788;2022-09-09T08:29:02;1.80;;;1.30;;
50815;SDS011;39717;47.324;8.788;2022-09-09T08:31:34;1.57;;;1.27;;
50815;SDS011;39717;47.324;8.788;2022-09-09T08:34:05;0.90;;;0.90;;
50815;SDS011;39717;47.324;8.788;2022-09-09T08:36:39;1.90;;;1.30;;
50815;SDS011;39717;47.324;8.788;2022-09-09T08:39:09;1.27;;;1.10;;
50815;SDS011;39717;47.324;8.788;2022-09-09T08:58:08;1.40;;;1.30;;
50815;SDS011;39717;47.324;8.788;2022-09-09T09:00:48;1.97;;;1.40;;
50815;SDS011;39717;47.324;8.788;2022-09-09T09:03:25;1.23;;;1.13;;
50815;SDS011;39717;47.324;8.788;2022-09-09T09:06:13;3.60;;;1.50;;
50815;SDS011;39717;47.324;8.788;2022-09-09T09:11:18;2.60;;;1.47;;
50815;SDS011;39717;47.324;8.788;2022-09-09T09:16:22;2.23;;;1.33;;
50815;SDS011;39717;47.324;8.788;2022-09-09T09:18:49;1.40;;;1.30;;
50815;SDS011;39717;47.324;8.788;2022-09-09T09:21:19;1.13;;;1.03;;
50815;SDS011;39717;47.324;8.788;2022-09-09T09:23:51;3.90;;;1.57;;
50815;SDS011;39717;47.324;8.788;2022-09-09T09:26:20;1.97;;;1.47;;
50815;SDS011;39717;47.324;8.788;2022-09-09T09:28:47;3.30;;;1.43;;
50815;SDS011;39717;47.324;8.788;2022-09-09T09:31:14;2.63;;;1.20;;
50815;SDS011;39717;47.324;8.788;2022-09-09T09:36:07;2.77;;;1.50;;
50815;SDS011;39717;47.324;8.788;2022-09-09T09:38:34;3.53;;;1.27;;
50815;SDS011;39717;47.324;8.788;2022-09-09T09:41:01;4.93;;;1.50;;
50815;SDS011;39717;47.324;8.788;2022-09-09T09:43:32;3.00;;;1.40;;
50815;SDS011;39717;47.324;8.788;2022-09-09T09:45:59;1.30;;;1.20;;
50815;SDS011;39717;47.324;8.788;2022-09-09T09:48:26;2.60;;;1.20;;
50815;SDS011;39717;47.324;8.788;2022-09-09T09:50:59;3.10;;;1.10;;
50815;SDS011;39717;47.324;8.788;2022-09-09T09:53:31;2.23;;;1.33;;
50815;SDS011;39717;47.324;8.788;2022-09-09T09:56:08;3.57;;;1.20;;
50815;SDS011;39717;47.324;8.788;2022-09-09T10:03:50;4.10;;;1.10;;
50815;SDS011;39717;47.324;8.788;2022-09-09T10:06:17;2.77;;;1.30;;
50815;SDS011;39717;47.324;8.788;2022-09-09T10:08:46;2.30;;;1.30;;
50815;SDS011;39717;47.324;8.788;2022-09-09T10:16:30;1.43;;;1.10;;
50815;SDS011;39717;47.324;8.788;2022-09-09T10:19:05;1.60;;;1.10;;
50815;SDS011;39717;47.324;8.788;2022-09-09T10:21:40;3.40;;;1.20;;
50815;SDS011;39717;47.324;8.788;2022-09-09T10:32:02;2.23;;;1.20;;
50815;SDS011;39717;47.324;8.788;2022-09-09T10:40:05;2.97;;;1.20;;
50815;SDS011;39717;47.324;8.788;2022-09-09T10:42:38;1.20;;;1.07;;
50815;SDS011;39717;47.324;8.788;2022-09-09T10:47:49;1.00;;;0.90;;
50815;SDS011;39717;47.324;8.788;2022-09-09T10:55:39;1.47;;;0.90;;
50815;SDS011;39717;47.324;8.788;2022-09-09T10:58:10;1.40;;;1.00;;
50815;SDS011;39717;47.324;8.788;2022-09-09T11:00:39;2.00;;;1.10;;
50815;SDS011;39717;47.324;8.788;2022-09-09T11:03:06;1.00;;;0.90;;
50815;SDS011;39717;47.324;8.788;2022-09-09T11:05:44;1.17;;;0.90;;
50815;SDS011;39717;47.324;8.788;2022-09-09T11:08:13;1.63;;;1.07;;
50815;SDS011;39717;47.324;8.788;2022-09-09T11:11:02;1.30;;;1.17;;
50815;SDS011;39717;47.324;8.788;2022-09-09T11:19:09;1.83;;;1.17;;
50815;SDS011;39717;47.324;8.788;2022-09-09T11:21:38;1.40;;;0.87;;
50815;SDS011;39717;47.324;8.788;2022-09-09T11:24:06;1.77;;;0.73;;
50815;SDS011;39717;47.324;8.788;2022-09-09T11:26:37;1.53;;;1.00;;
50815;SDS011;39717;47.324;8.788;2022-09-09T11:37:12;1.80;;;1.10;;
50815;SDS011;39717;47.324;8.788;2022-09-09T11:42:23;3.33;;;1.10;;
50815;SDS011;39717;47.324;8.788;2022-09-09T11:44:50;1.87;;;1.10;;
50815;SDS011;39717;47.324;8.788;2022-09-09T11:47:22;1.03;;;0.80;;
50815;SDS011;39717;47.324;8.788;2022-09-09T11:49:51;1.93;;;1.00;;
50815;SDS011;39717;47.324;8.788;2022-09-09T11:52:23;3.97;;;1.10;;
50815;SDS011;39717;47.324;8.788;2022-09-09T11:54:53;2.07;;;1.13;;
50815;SDS011;39717;47.324;8.788;2022-09-09T11:57:25;2.53;;;1.30;;
50815;SDS011;39717;47.324;8.788;2022-09-09T11:59:53;3.67;;;1.30;;
50815;SDS011;39717;47.324;8.788;2022-09-09T12:02:29;1.97;;;1.27;;
50815;SDS011;39717;47.324;8.788;2022-09-09T12:05:01;4.53;;;1.40;;
50815;SDS011;39717;47.324;8.788;2022-09-09T12:12:48;3.50;;;1.10;;
50815;SDS011;39717;47.324;8.788;2022-09-09T12:15:27;2.97;;;1.20;;
50815;SDS011;39717;47.324;8.788;2022-09-09T12:17:55;3.27;;;1.20;;
50815;SDS011;39717;47.324;8.788;2022-09-09T12:20:23;3.37;;;1.20;;
50815;SDS011;39717;47.324;8.788;2022-09-09T12:25:18;2.53;;;1.40;;
50815;SDS011;39717;47.324;8.788;2022-09-09T12:30:28;2.60;;;1.10;;
50815;SDS011;39717;47.324;8.788;2022-09-09T12:33:33;1.40;;;1.30;;
50815;SDS011;39717;47.324;8.788;2022-09-09T12:35:51;1.63;;;1.13;;
50815;SDS011;39717;47.324;8.788;2022-09-09T12:38:27;1.70;;;1.10;;
50815;SDS011;39717;47.324;8.788;2022-09-09T12:40:55;2.00;;;0.73;;
50815;SDS011;39717;47.324;8.788;2022-09-09T12:43:23;1.73;;;1.10;;
50815;SDS011;39717;47.324;8.788;2022-09-09T12:45:50;1.20;;;1.10;;
50815;SDS011;39717;47.324;8.788;2022-09-09T12:48:22;2.73;;;1.10;;
50815;SDS011;39717;47.324;8.788;2022-09-09T12:50:50;1.63;;;1.10;;
50815;SDS011;39717;47.324;8.788;2022-09-09T12:53:25;2.13;;;1.27;;
50815;SDS011;39717;47.324;8.788;2022-09-09T12:55:59;0.97;;;0.93;;
50815;SDS011;39717;47.324;8.788;2022-09-09T12:58:26;2.37;;;1.10;;
50815;SDS011;39717;47.324;8.788;2022-09-09T13:00:57;2.27;;;1.30;;
50815;SDS011;39717;47.324;8.788;2022-09-09T13:03:25;3.23;;;1.20;;
50815;SDS011;39717;47.324;8.788;2022-09-09T13:05:51;1.17;;;0.93;;
50815;SDS011;39717;47.324;8.788;2022-09-09T13:08:18;2.40;;;1.20;;
50815;SDS011;39717;47.324;8.788;2022-09-09T13:13:15;1.20;;;0.90;;
50815;SDS011;39717;47.324;8.788;2022-09-09T13:15:48;2.17;;;1.20;;
50815;SDS011;39717;47.324;8.788;2022-09-09T13:18:15;1.73;;;1.20;;
50815;SDS011;39717;47.324;8.788;2022-09-09T13:20:46;2.67;;;1.17;;
50815;SDS011;39717;47.324;8.788;2022-09-09T13:23:13;1.83;;;1.10;;
50815;SDS011;39717;47.324;8.788;2022-09-09T13:25:39;1.30;;;1.20;;
50815;SDS011;39717;47.324;8.788;2022-09-09T13:28:19;1.70;;;1.10;;
50815;SDS011;39717;47.324;8.788;2022-09-09T13:30:54;2.40;;;1.13;;
50815;SDS011;39717;47.324;8.788;2022-09-09T13:33:28;2.93;;;1.23;;
50815;SDS011;39717;47.324;8.788;2022-09-09T13:35:58;2.30;;;1.20;;
50815;SDS011;39717;47.324;8.788;2022-09-09T13:38:25;0.90;;;0.90;;
50815;SDS011;39717;47.324;8.788;2022-09-09T13:40:54;2.30;;;1.30;;
50815;SDS011;39717;47.324;8.788;2022-09-09T13:43:23;0.90;;;0.90;;
50815;SDS011;39717;47.324;8.788;2022-09-09T13:45:57;2.63;;;1.30;;
50815;SDS011;39717;47.324;8.788;2022-09-09T13:48:24;2.10;;;1.17;;
50815;SDS011;39717;47.324;8.788;2022-09-09T13:50:59;3.23;;;1.27;;
50815;SDS011;39717;47.324;8.788;2022-09-09T13:53:25;2.20;;;1.30;;
50815;SDS011;39717;47.324;8.788;2022-09-09T13:55:52;2.00;;;1.13;;
50815;SDS011;39717;47.324;8.788;2022-09-09T13:58:18;1.77;;;1.10;;
50815;SDS011;39717;47.324;8.788;2022-09-09T14:00:45;2.37;;;1.20;;
50815;SDS011;39717;47.324;8.788;2022-09-09T14:03:11;2.37;;;1.00;;
50815;SDS011;39717;47.324;8.788;2022-09-09T14:05:38;1.60;;;1.50;;
50815;SDS011;39717;47.324;8.788;2022-09-09T14:08:05;3.40;;;1.13;;
50815;SDS011;39717;47.324;8.788;2022-09-09T14:10:32;1.77;;;1.00;;
50815;SDS011;39717;47.324;8.788;2022-09-09T14:13:00;1.00;;;1.00;;
50815;SDS011;39717;47.324;8.788;2022-09-09T14:15:27;3.77;;;1.80;;
50815;SDS011;39717;47.324;8.788;2022-09-09T14:17:54;2.37;;;1.50;;
50815;SDS011;39717;47.324;8.788;2022-09-09T14:20:21;3.07;;;1.20;;
50815;SDS011;39717;47.324;8.788;2022-09-09T14:22:48;5.13;;;1.70;;
50815;SDS011;39717;47.324;8.788;2022-09-09T14:25:14;2.43;;;1.00;;
50815;SDS011;39717;47.324;8.788;2022-09-09T14:27:40;2.13;;;1.27;;
50815;SDS011;39717;47.324;8.788;2022-09-09T14:30:07;3.30;;;1.57;;
50815;SDS011;39717;47.324;8.788;2022-09-09T14:32:34;2.60;;;1.20;;
50815;SDS011;39717;47.324;8.788;2022-09-09T14:35:00;2.00;;;1.13;;
50815;SDS011;39717;47.324;8.788;2022-09-09T14:37:27;1.30;;;1.20;;
50815;SDS011;39717;47.324;8.788;2022-09-09T14:39:53;1.73;;;1.40;;
50815;SDS011;39717;47.324;8.788;2022-09-09T14:42:19;1.37;;;1.27;;
50815;SDS011;39717;47.324;8.788;2022-09-09T14:44:46;2.70;;;1.23;;
50815;SDS011;39717;47.324;8.788;2022-09-09T14:47:13;1.83;;;1.37;;
50815;SDS011;39717;47.324;8.788;2022-09-09T14:49:39;1.40;;;1.20;;
50815;SDS011;39717;47.324;8.788;2022-09-09T14:52:05;2.63;;;1.40;;
50815;SDS011;39717;47.324;8.788;2022-09-09T14:54:31;3.90;;;1.60;;
50815;SDS011;39717;47.324;8.788;2022-09-09T14:56:58;2.73;;;1.50;;
50815;SDS011;39717;47.324;8.788;2022-09-09T14:59:24;2.07;;;1.43;;
50815;SDS011;39717;47.324;8.788;2022-09-09T15:01:52;2.77;;;1.43;;
50815;SDS011;39717;47.324;8.788;2022-09-09T15:04:18;3.57;;;1.40;;
50815;SDS011;39717;47.324;8.788;2022-09-09T15:06:45;1.63;;;1.53;;
50815;SDS011;39717;47.324;8.788;2022-09-09T15:09:13;2.87;;;1.30;;
50815;SDS011;39717;47.324;8.788;2022-09-09T15:11:39;1.73;;;1.30;;
50815;SDS011;39717;47.324;8.788;2022-09-09T15:14:07;1.70;;;1.20;;
50815;SDS011;39717;47.324;8.788;2022-09-09T15:16:34;2.87;;;1.20;;
50815;SDS011;39717;47.324;8.788;2022-09-09T15:19:00;1.47;;;1.10;;
50815;SDS011;39717;47.324;8.788;2022-09-09T15:21:29;1.77;;;1.30;;
50815;SDS011;39717;47.324;8.788;2022-09-09T15:23:56;2.33;;;1.30;;
50815;SDS011;39717;47.324;8.788;2022-09-09T15:26:23;1.67;;;1.23;;
50815;SDS011;39717;47.324;8.788;2022-09-09T15:28:49;1.50;;;1.30;;
50815;SDS011;39717;47.324;8.788;2022-09-09T15:31:17;4.00;;;1.20;;
50815;SDS011;39717;47.324;8.788;2022-09-09T15:33:47;2.30;;;1.30;;
50815;SDS011;39717;47.324;8.788;2022-09-09T15:36:15;6.20;;;4.67;;
50815;SDS011;39717;47.324;8.788;2022-09-09T15:38:41;7.37;;;4.83;;
50815;SDS011;39717;47.324;8.788;2022-09-09T15:41:09;2.33;;;1.50;;
50815;SDS011;39717;47.324;8.788;2022-09-09T15:43:36;1.70;;;1.30;;
50815;SDS011;39717;47.324;8.788;2022-09-09T15:46:46;2.20;;;1.53;;
50815;SDS011;39717;47.324;8.788;2022-09-09T15:48:53;2.80;;;1.20;;
50815;SDS011;39717;47.324;8.788;2022-09-09T15:51:20;2.97;;;1.07;;
50815;SDS011;39717;47.324;8.788;2022-09-09T15:53:47;2.47;;;1.30;;
50815;SDS011;39717;47.324;8.788;2022-09-09T15:56:13;1.43;;;1.10;;
50815;SDS011;39717;47.324;8.788;2022-09-09T15:58:39;0.83;;;0.83;;
50815;SDS011;39717;47.324;8.788;2022-09-09T16:01:07;2.47;;;0.90;;
50815;SDS011;39717;47.324;8.788;2022-09-09T16:03:34;1.73;;;1.23;;
50815;SDS011;39717;47.324;8.788;2022-09-09T16:06:01;3.10;;;1.20;;
50815;SDS011;39717;47.324;8.788;2022-09-09T16:08:37;1.63;;;1.20;;
50815;SDS011;39717;47.324;8.788;2022-09-09T16:11:07;1.50;;;1.23;;
50815;SDS011;39717;47.324;8.788;2022-09-09T16:13:38;2.87;;;1.17;;
50815;SDS011;39717;47.324;8.788;2022-09-09T16:16:05;3.53;;;1.13;;
50815;SDS011;39717;47.324;8.788;2022-09-09T16:18:35;2.00;;;1.00;;
50815;SDS011;39717;47.324;8.788;2022-09-09T16:21:01;2.37;;;1.00;;
50815;SDS011;39717;47.324;8.788;2022-09-09T16:23:39;1.50;;;1.13;;
50815;SDS011;39717;47.324;8.788;2022-09-09T16:26:05;3.03;;;0.80;;
50815;SDS011;39717;47.324;8.788;2022-09-09T16:28:32;1.70;;;0.83;;
50815;SDS011;39717;47.324;8.788;2022-09-09T16:30:58;2.33;;;1.00;;
50815;SDS011;39717;47.324;8.788;2022-09-09T16:33:24;3.27;;;0.80;;
50815;SDS011;39717;47.324;8.788;2022-09-09T16:35:51;1.00;;;0.80;;
50815;SDS011;39717;47.324;8.788;2022-09-09T16:38:17;1.13;;;0.87;;
50815;SDS011;39717;47.324;8.788;2022-09-09T16:40:43;1.17;;;0.87;;
50815;SDS011;39717;47.324;8.788;2022-09-09T16:43:09;1.00;;;0.90;;
50815;SDS011;39717;47.324;8.788;2022-09-09T16:45:43;1.73;;;0.90;;
50815;SDS011;39717;47.324;8.788;2022-09-09T16:48:10;1.00;;;0.90;;
50815;SDS011;39717;47.324;8.788;2022-09-09T16:50:37;2.73;;;0.97;;
50815;SDS011;39717;47.324;8.788;2022-09-09T16:53:04;1.83;;;0.87;;
50815;SDS011;39717;47.324;8.788;2022-09-09T16:55:37;1.47;;;0.90;;
50815;SDS011;39717;47.324;8.788;2022-09-09T16:58:04;1.67;;;0.70;;
50815;SDS011;39717;47.324;8.788;2022-09-09T17:00:30;3.17;;;0.87;;
50815;SDS011;39717;47.324;8.788;2022-09-09T17:02:57;1.60;;;0.80;;
50815;SDS011;39717;47.324;8.788;2022-09-09T17:05:23;2.80;;;1.03;;
50815;SDS011;39717;47.324;8.788;2022-09-09T17:07:50;0.47;;;0.43;;
50815;SDS011;39717;47.324;8.788;2022-09-09T17:10:17;0.60;;;0.60;;
50815;SDS011;39717;47.324;8.788;2022-09-09T17:12:43;8.00;;;4.43;;
50815;SDS011;39717;47.324;8.788;2022-09-09T17:15:11;3.40;;;1.63;;
50815;SDS011;39717;47.324;8.788;2022-09-09T17:17:36;3.90;;;1.30;;
50815;SDS011;39717;47.324;8.788;2022-09-09T17:20:02;1.93;;;0.90;;
50815;SDS011;39717;47.324;8.788;2022-09-09T17:22:31;6.00;;;3.33;;
50815;SDS011;39717;47.324;8.788;2022-09-09T17:24:58;4.43;;;2.80;;